createdAt,value
2018-07-20T00:01:48.322Z,2.93
2018-07-20T00:04:17.142Z,3.70
2018-07-20T00:06:46.203Z,2.20
2018-07-20T00:09:15.195Z,3.07
2018-07-20T00:11:44.145Z,3.55
2018-07-20T00:14:13.139Z,2.83
2018-07-20T00:16:42.458Z,3.90
2018-07-20T00:19:11.432Z,2.75
2018-07-20T00:21:40.400Z,3.03
2018-07-20T00:24:09.465Z,3.40
2018-07-20T00:26:38.507Z,2.63
2018-07-20T00:29:07.493Z,3.87
2018-07-20T00:31:36.498Z,2.85
2018-07-20T00:34:05.569Z,2.93
2018-07-20T00:36:34.455Z,3.40
2018-07-20T00:39:03.671Z,2.70
2018-07-20T00:41:32.686Z,4.00
2018-07-20T00:44:01.629Z,3.43
2018-07-20T00:46:30.624Z,2.13
2018-07-20T00:48:59.580Z,3.33
2018-07-20T00:51:28.590Z,2.63
2018-07-20T00:53:57.566Z,3.40
2018-07-20T00:56:26.567Z,3.27
2018-07-20T00:58:55.535Z,2.80
2018-07-20T01:01:24.539Z,3.70
2018-07-20T01:03:53.514Z,2.80
2018-07-20T01:06:23.432Z,3.67
2018-07-20T01:08:53.171Z,4.23
2018-07-20T01:11:23.124Z,3.20
2018-07-20T01:13:53.148Z,4.43
2018-07-20T01:16:22.834Z,3.40
2018-07-20T01:18:51.644Z,4.30
2018-07-20T01:21:21.458Z,4.00
2018-07-20T01:23:50.467Z,3.67
2018-07-20T01:26:19.425Z,4.30
2018-07-20T01:28:48.458Z,3.40
2018-07-20T01:31:17.804Z,3.90
2018-07-20T01:33:46.768Z,3.63
2018-07-20T01:36:15.758Z,3.73
2018-07-20T01:38:44.751Z,4.53
2018-07-20T01:41:13.895Z,3.60
2018-07-20T01:43:42.871Z,4.77
2018-07-20T01:46:12.052Z,4.20
2018-07-20T01:48:40.836Z,3.52
2018-07-20T01:51:09.770Z,4.13
2018-07-20T01:53:38.764Z,3.47
2018-07-20T01:56:07.792Z,4.90
2018-07-20T01:58:36.788Z,3.40
2018-07-20T02:01:05.799Z,3.83
2018-07-20T02:03:34.807Z,5.37
2018-07-20T02:06:03.748Z,3.53
2018-07-20T02:08:32.727Z,4.53
2018-07-20T02:11:01.930Z,4.33
2018-07-20T02:13:30.959Z,4.00
2018-07-20T02:15:59.907Z,5.23
2018-07-20T02:18:28.911Z,3.73
2018-07-20T02:20:57.923Z,4.87
2018-07-20T02:23:26.895Z,4.78
2018-07-20T02:25:55.907Z,4.77
2018-07-20T02:28:24.888Z,4.73
2018-07-20T02:30:53.878Z,4.37
2018-07-20T02:33:23.318Z,5.40
2018-07-20T02:35:52.175Z,4.93
2018-07-20T02:38:21.135Z,4.20
2018-07-20T02:40:50.155Z,5.55
2018-07-20T02:43:19.182Z,3.83
2018-07-20T02:45:48.147Z,4.77
2018-07-20T02:48:17.196Z,4.83
2018-07-20T02:50:46.168Z,4.43
2018-07-20T02:53:15.172Z,5.93
2018-07-20T02:55:44.168Z,4.77
2018-07-20T02:58:13.165Z,4.90
2018-07-20T03:00:42.178Z,5.90
2018-07-20T03:03:11.235Z,4.30
2018-07-20T03:05:40.258Z,6.03
2018-07-20T03:08:09.423Z,5.03
2018-07-20T03:10:38.488Z,5.33
2018-07-20T03:13:07.654Z,6.15
2018-07-20T03:15:36.659Z,4.70
2018-07-20T03:18:05.447Z,5.83
2018-07-20T03:20:34.967Z,5.97
2018-07-20T03:23:03.684Z,5.50
2018-07-20T03:25:32.394Z,5.33
2018-07-20T03:28:01.237Z,5.13
2018-07-20T03:30:30.176Z,6.15
2018-07-20T03:32:59.149Z,4.97
2018-07-20T03:35:28.136Z,5.28
2018-07-20T03:37:57.070Z,5.40
2018-07-20T03:40:26.075Z,4.90
2018-07-20T03:42:54.781Z,6.60
2018-07-20T03:45:23.843Z,5.70
2018-07-20T03:47:54.787Z,6.17
2018-07-20T03:50:23.791Z,4.80
2018-07-20T03:52:52.764Z,4.80
2018-07-20T03:55:21.762Z,6.00
2018-07-20T03:57:50.732Z,4.70
2018-07-20T04:00:19.707Z,6.70
2018-07-20T04:02:48.723Z,5.37
2018-07-20T04:05:17.744Z,5.33
2018-07-20T04:07:46.526Z,6.67
2018-07-20T04:10:15.450Z,6.03
2018-07-20T04:12:45.240Z,6.05
2018-07-20T04:15:14.245Z,5.53
2018-07-20T04:17:44.287Z,5.47
2018-07-20T04:20:14.851Z,6.70
2018-07-20T04:22:44.133Z,5.20
2018-07-20T04:25:13.083Z,6.67
2018-07-20T04:27:42.203Z,5.07
2018-07-20T04:30:12.755Z,6.03
2018-07-20T04:32:41.822Z,5.67
2018-07-20T04:35:11.476Z,5.20
2018-07-20T04:37:40.468Z,5.80
2018-07-20T04:40:09.486Z,5.97
2018-07-20T04:42:38.575Z,6.17
2018-07-20T04:45:08.498Z,5.90
2018-07-20T04:47:37.500Z,5.80
2018-07-20T04:50:06.559Z,5.70
2018-07-20T04:52:35.615Z,4.83
2018-07-20T04:55:04.575Z,6.50
2018-07-20T04:57:33.512Z,4.77
2018-07-20T05:00:02.556Z,5.03
2018-07-20T05:02:31.549Z,4.60
2018-07-20T05:05:00.507Z,3.95
2018-07-20T05:07:29.567Z,4.33
2018-07-20T05:09:58.574Z,3.67
2018-07-20T05:12:28.211Z,3.35
2018-07-20T05:14:57.175Z,3.83
2018-07-20T05:17:26.562Z,3.37
2018-07-20T05:19:56.460Z,3.70
2018-07-20T05:22:25.479Z,2.50
2018-07-20T05:24:54.440Z,3.40
2018-07-20T05:27:23.178Z,2.50
2018-07-20T05:29:52.067Z,2.67
2018-07-20T05:32:21.071Z,3.17
2018-07-20T05:34:50.024Z,2.62
2018-07-20T05:37:19.008Z,4.30
2018-07-20T05:39:47.995Z,2.70
2018-07-20T05:42:16.972Z,3.10
2018-07-20T05:44:45.951Z,3.45
2018-07-20T05:47:14.741Z,2.58
2018-07-20T05:49:43.607Z,2.92
2018-07-20T05:52:12.579Z,2.20
2018-07-20T05:54:41.622Z,3.00
2018-07-20T05:57:10.720Z,2.12
2018-07-20T05:59:39.706Z,2.50
2018-07-20T06:02:08.827Z,2.83
2018-07-20T06:04:37.828Z,2.43
2018-07-20T06:07:06.784Z,3.02
2018-07-20T06:09:35.617Z,3.30
2018-07-20T06:12:04.459Z,2.20
2018-07-20T06:14:33.443Z,2.90
2018-07-20T06:17:02.465Z,2.50
2018-07-20T06:19:31.409Z,2.76
2018-07-20T06:22:00.356Z,2.10
2018-07-20T06:24:29.376Z,2.67
2018-07-20T06:26:58.294Z,2.77
2018-07-20T06:29:27.269Z,1.77
2018-07-20T06:31:57.048Z,2.45
2018-07-20T06:34:26.834Z,2.20
2018-07-20T06:36:56.443Z,2.05
2018-07-20T06:39:25.270Z,2.87
2018-07-20T06:41:54.409Z,2.05
2018-07-20T06:44:23.397Z,2.45
2018-07-20T06:46:52.371Z,2.58
2018-07-20T06:49:21.324Z,1.87
2018-07-20T06:51:50.312Z,2.30
2018-07-20T06:54:19.831Z,1.60
2018-07-20T06:56:48.763Z,2.45
2018-07-20T06:59:17.765Z,2.08
2018-07-20T07:01:46.741Z,1.82
2018-07-20T07:04:15.764Z,2.40
2018-07-20T07:06:44.764Z,1.67
2018-07-20T07:09:13.758Z,2.00
2018-07-20T07:11:42.815Z,1.70
2018-07-20T07:14:11.778Z,2.00
2018-07-20T07:16:40.807Z,2.00
2018-07-20T07:19:09.621Z,1.22
2018-07-20T07:21:38.496Z,1.82
2018-07-20T07:24:07.439Z,1.47
2018-07-20T07:26:36.079Z,1.43
2018-07-20T07:29:04.918Z,2.00
2018-07-20T07:31:33.882Z,1.50
2018-07-20T07:34:02.710Z,1.85
2018-07-20T07:36:31.532Z,1.52
2018-07-20T07:39:00.527Z,1.60
2018-07-20T07:41:29.514Z,2.80
2018-07-20T07:43:58.510Z,1.25
2018-07-20T07:46:27.452Z,2.07
2018-07-20T07:48:56.591Z,2.27
2018-07-20T07:51:25.556Z,1.10
2018-07-20T07:53:54.535Z,2.33
2018-07-20T07:56:23.543Z,1.27
2018-07-20T07:58:52.574Z,1.60
2018-07-20T08:01:21.607Z,1.55
2018-07-20T08:03:50.660Z,1.12
2018-07-20T08:06:19.658Z,2.12
2018-07-20T08:08:48.694Z,1.30
2018-07-20T08:11:17.715Z,2.05
2018-07-20T08:13:46.700Z,1.47
2018-07-20T08:16:15.656Z,1.27
2018-07-20T08:18:44.643Z,2.00
2018-07-20T08:21:13.694Z,1.50
2018-07-20T08:23:42.659Z,1.35
2018-07-20T08:26:11.404Z,2.20
2018-07-20T08:28:40.304Z,1.00
2018-07-20T08:31:09.285Z,2.13
2018-07-20T08:33:38.316Z,1.27
2018-07-20T08:36:07.327Z,2.07
2018-07-20T08:38:36.280Z,1.60
2018-07-20T08:41:05.285Z,1.62
2018-07-20T08:43:34.277Z,2.67
2018-07-20T08:46:03.606Z,1.70
2018-07-20T08:48:32.423Z,2.25
2018-07-20T08:51:01.412Z,1.50
2018-07-20T08:53:31.075Z,1.82
2018-07-20T08:56:00.072Z,2.30
2018-07-20T08:58:29.151Z,1.60
2018-07-20T09:00:58.110Z,2.33
2018-07-20T09:03:28.315Z,1.27
2018-07-20T09:05:57.579Z,1.85
2018-07-20T09:08:27.491Z,2.15
2018-07-20T09:10:57.443Z,1.55
2018-07-20T09:13:26.478Z,2.25
2018-07-20T09:15:55.518Z,1.60
2018-07-20T09:18:24.271Z,2.45
2018-07-20T09:20:53.128Z,1.60
2018-07-20T09:23:22.085Z,1.42
2018-07-20T09:25:51.077Z,2.20
2018-07-20T09:28:20.085Z,2.30
2018-07-20T09:30:49.059Z,2.30
2018-07-20T09:33:18.039Z,1.75
2018-07-20T09:35:47.035Z,1.65
2018-07-20T09:38:16.010Z,2.10
2018-07-20T09:40:44.979Z,1.80
2018-07-20T09:43:13.947Z,1.90
2018-07-20T09:45:42.946Z,1.67
2018-07-20T09:48:12.024Z,1.57
2018-07-20T09:50:41.054Z,2.33
2018-07-20T09:53:10.029Z,1.50
2018-07-20T09:55:39.047Z,1.95
2018-07-20T09:58:08.036Z,1.77
2018-07-20T10:00:38.223Z,1.90
2018-07-20T10:03:07.406Z,1.90
2018-07-20T10:05:36.446Z,1.50
2018-07-20T10:08:05.623Z,1.93
2018-07-20T10:10:34.616Z,1.40
2018-07-20T10:13:03.637Z,2.02
2018-07-20T10:15:32.640Z,1.72
2018-07-20T10:18:02.792Z,1.80
2018-07-20T10:20:31.831Z,2.77
2018-07-20T10:23:01.397Z,1.63
2018-07-20T10:25:30.712Z,2.38
2018-07-20T10:27:59.676Z,1.70
2018-07-20T10:30:28.679Z,1.80
2018-07-20T10:32:58.259Z,2.58
2018-07-20T10:35:28.223Z,1.27
2018-07-20T10:37:58.140Z,2.25
2018-07-20T10:40:28.004Z,1.60
2018-07-20T10:42:58.368Z,1.92
2018-07-20T10:45:28.058Z,1.85
2018-07-20T10:47:56.931Z,1.50
2018-07-20T10:50:25.908Z,2.27
2018-07-20T10:52:54.674Z,1.60
2018-07-20T10:55:23.562Z,2.27
2018-07-20T10:57:52.551Z,1.95
2018-07-20T11:00:21.530Z,1.95
2018-07-20T11:02:50.548Z,2.90
2018-07-20T11:05:20.434Z,1.40
2018-07-20T11:07:49.434Z,2.47
2018-07-20T11:10:19.150Z,1.90
2018-07-20T11:12:48.152Z,2.02
2018-07-20T11:15:17.214Z,2.43
2018-07-20T11:17:46.150Z,1.52
2018-07-20T11:20:15.151Z,3.33
2018-07-20T11:22:44.179Z,1.72
2018-07-20T11:25:12.971Z,1.87
2018-07-20T11:27:41.851Z,2.92
2018-07-20T11:30:10.939Z,1.45
2018-07-20T11:32:39.949Z,2.92
2018-07-20T11:35:09.044Z,2.00
2018-07-20T11:37:38.075Z,2.27
2018-07-20T11:40:07.221Z,2.83
2018-07-20T11:42:36.286Z,2.30
2018-07-20T11:45:06.023Z,2.80
2018-07-20T11:47:35.036Z,2.03
2018-07-20T11:50:04.194Z,3.03
2018-07-20T11:52:32.999Z,1.80
2018-07-20T11:55:02.006Z,1.87
2018-07-20T11:57:30.980Z,3.08
2018-07-20T12:00:00.121Z,1.70
2018-07-20T12:02:29.115Z,2.92
2018-07-20T12:04:59.028Z,2.40
2018-07-20T12:07:28.954Z,2.30
2018-07-20T12:09:58.790Z,2.85
2018-07-20T12:12:27.785Z,1.90
2018-07-20T12:14:56.765Z,3.30
2018-07-20T12:17:25.743Z,1.90
2018-07-20T12:19:54.720Z,2.67
2018-07-20T12:22:23.732Z,2.95
2018-07-20T12:24:52.522Z,2.13
2018-07-20T12:27:21.899Z,2.80
2018-07-20T12:29:50.895Z,1.70
2018-07-20T12:32:19.852Z,2.42
2018-07-20T12:34:48.664Z,2.30
2018-07-20T12:37:17.347Z,2.15
2018-07-20T12:39:46.190Z,2.87
2018-07-20T12:42:15.220Z,2.30
2018-07-20T12:44:44.244Z,2.37
2018-07-20T12:47:13.090Z,2.37
2018-07-20T12:49:41.997Z,2.10
2018-07-20T12:52:11.083Z,2.85
2018-07-20T12:54:40.159Z,2.05
2018-07-20T12:57:09.325Z,2.60
2018-07-20T12:59:38.502Z,2.50
2018-07-20T13:02:07.545Z,2.50
2018-07-20T13:04:36.491Z,2.60
2018-07-20T13:07:05.934Z,2.53
2018-07-20T13:09:34.927Z,2.27
2018-07-20T13:12:04.015Z,3.00
2018-07-20T13:14:32.894Z,2.17
2018-07-20T13:17:01.697Z,2.92
2018-07-20T13:19:30.588Z,2.50
2018-07-20T13:21:59.536Z,2.17
2018-07-20T13:24:29.416Z,3.13
2018-07-20T13:26:59.405Z,2.50
2018-07-20T13:29:29.319Z,2.67
2018-07-20T13:31:58.268Z,3.00
2018-07-20T13:40:22.931Z,2.40
2018-07-20T13:42:52.355Z,2.95
2018-07-20T13:45:21.224Z,3.27
2018-07-20T13:47:50.050Z,3.80
2018-07-20T13:50:18.830Z,3.75
2018-07-20T13:52:47.718Z,3.62
2018-07-20T13:55:16.683Z,3.70
2018-07-20T13:57:45.691Z,3.15
2018-07-20T14:00:14.768Z,4.47
2018-07-20T14:02:43.804Z,2.83
2018-07-20T14:05:12.824Z,3.52
2018-07-20T14:07:41.850Z,4.30
2018-07-20T14:10:11.722Z,3.40
2018-07-20T14:12:41.346Z,3.80
2018-07-20T14:15:11.974Z,3.27
2018-07-20T14:17:42.277Z,4.00
2018-07-20T14:20:11.964Z,2.98
2018-07-20T14:22:40.989Z,3.30
2018-07-20T14:25:10.022Z,3.37
2018-07-20T14:27:39.373Z,4.00
2018-07-20T14:30:08.514Z,3.25
2018-07-20T14:32:38.234Z,3.17
2018-07-20T14:35:07.253Z,3.65
2018-07-20T14:37:36.232Z,3.77
2018-07-20T14:40:06.624Z,3.70
2018-07-20T14:42:35.578Z,3.00
2018-07-20T14:45:04.732Z,3.65
2018-07-20T14:47:33.608Z,3.77
2018-07-20T14:50:02.567Z,3.15
2018-07-20T14:52:31.539Z,4.00
2018-07-20T14:55:00.534Z,2.80
2018-07-20T14:57:29.783Z,3.35
2018-07-20T14:59:59.708Z,3.20
2018-07-20T15:02:29.670Z,3.58
2018-07-20T15:04:58.611Z,3.55
2018-07-20T15:07:27.587Z,3.12
2018-07-20T15:09:56.615Z,4.45
2018-07-20T15:12:25.626Z,3.33
2018-07-20T15:14:54.683Z,3.77
2018-07-20T15:17:23.919Z,3.30
2018-07-20T15:19:52.960Z,3.60
2018-07-20T15:22:21.976Z,4.03
2018-07-20T15:24:50.729Z,3.57
2018-07-20T15:27:19.615Z,3.70
2018-07-20T15:29:48.591Z,3.22
2018-07-20T15:32:17.406Z,4.05
2018-07-20T15:34:46.267Z,3.65
2018-07-20T15:37:15.251Z,2.93
2018-07-20T15:39:44.255Z,4.00
2018-07-20T15:42:13.283Z,3.13
2018-07-20T15:44:42.327Z,4.13
2018-07-20T15:47:11.942Z,3.60
2018-07-20T15:49:40.963Z,3.20
2018-07-20T15:54:39.002Z,3.08
2018-07-20T15:57:08.215Z,3.35
2018-07-20T15:59:37.264Z,3.40
2018-07-20T16:02:06.579Z,3.17
2018-07-20T16:04:35.569Z,4.00
2018-07-20T16:07:04.605Z,3.00
2018-07-20T16:09:33.614Z,3.60
2018-07-20T16:12:02.585Z,3.52
2018-07-20T16:14:31.559Z,2.72
2018-07-20T16:17:00.570Z,3.17
2018-07-20T16:19:31.519Z,2.75
2018-07-20T16:22:00.531Z,3.00
2018-07-20T16:24:30.475Z,2.90
2018-07-20T16:27:00.355Z,3.43
2018-07-20T16:29:30.256Z,3.10
2018-07-20T16:31:59.269Z,2.87
2018-07-20T16:34:28.271Z,3.87
2018-07-20T16:36:57.263Z,3.37
2018-07-20T16:39:26.262Z,3.70
2018-07-20T16:41:55.267Z,3.10
2018-07-20T16:44:24.267Z,4.05
2018-07-20T16:46:53.247Z,3.95
2018-07-20T16:49:22.672Z,3.22
2018-07-20T16:51:51.716Z,4.50
2018-07-20T16:54:20.651Z,3.12
2018-07-20T16:56:49.696Z,3.90
2018-07-20T16:59:19.915Z,4.40
2018-07-20T17:01:48.951Z,3.65
2018-07-20T17:04:18.591Z,4.08
2018-07-20T17:06:47.360Z,3.35
2018-07-20T17:09:16.196Z,4.08
2018-07-20T17:11:45.217Z,3.92
2018-07-20T17:14:14.245Z,4.58
2018-07-20T17:16:43.232Z,3.83
2018-07-20T17:19:12.248Z,3.10
2018-07-20T17:21:41.274Z,4.15
2018-07-20T17:24:10.326Z,3.50
2018-07-20T17:26:39.605Z,4.00
2018-07-20T17:29:08.647Z,3.42
2018-07-20T17:31:37.864Z,3.77
2018-07-20T17:34:06.883Z,4.37
2018-07-20T17:36:36.594Z,3.75
2018-07-20T17:39:08.207Z,4.12
2018-07-20T17:41:37.052Z,3.65
2018-07-20T17:44:05.956Z,4.47
2018-07-20T17:46:35.012Z,3.68
2018-07-20T17:49:04.044Z,3.90
2018-07-20T17:51:33.093Z,4.63
2018-07-20T17:54:02.078Z,3.72
2018-07-20T17:56:31.039Z,4.30
2018-07-20T17:59:00.717Z,3.42
2018-07-20T18:01:30.584Z,3.97
2018-07-20T18:04:00.055Z,3.68
2018-07-20T18:06:29.121Z,3.50
2018-07-20T18:08:58.120Z,4.57
2018-07-20T18:11:27.176Z,4.00
2018-07-20T18:13:57.080Z,4.60
2018-07-20T18:16:26.089Z,4.00
2018-07-20T18:18:55.139Z,4.55
2018-07-20T18:21:24.132Z,4.22
2018-07-20T18:23:52.899Z,3.90
2018-07-20T18:26:21.956Z,4.20
2018-07-20T18:28:50.982Z,4.00
2018-07-20T18:31:20.743Z,4.17
2018-07-20T18:33:49.844Z,3.60
2018-07-20T18:36:18.795Z,4.40
2018-07-20T18:38:48.020Z,3.97
2018-07-20T18:41:17.687Z,3.55
2018-07-20T18:43:46.543Z,5.05
2018-07-20T18:46:15.384Z,4.10
2018-07-20T18:48:44.170Z,4.62
2018-07-20T18:51:13.612Z,3.60
2018-07-20T18:53:42.596Z,4.42
2018-07-20T18:56:11.579Z,4.67
2018-07-20T18:58:40.630Z,4.37
2018-07-20T19:01:09.661Z,4.73
2018-07-20T19:03:38.711Z,4.30
2018-07-20T19:06:07.769Z,4.10
2018-07-20T19:08:36.856Z,4.15
2018-07-20T19:11:05.840Z,4.25
2018-07-20T19:13:34.850Z,4.53
2018-07-20T19:16:03.888Z,4.42
2018-07-20T19:18:32.895Z,4.62
2018-07-20T19:21:01.710Z,4.70
2018-07-20T19:23:31.023Z,4.70
2018-07-20T19:26:00.607Z,4.70
2018-07-20T19:28:29.623Z,5.50
2018-07-20T19:30:58.644Z,6.07
2018-07-20T19:33:28.184Z,6.20
2018-07-20T19:35:57.303Z,6.12
2018-07-20T19:38:26.331Z,5.03
2018-07-20T19:40:55.432Z,4.53
2018-07-20T19:43:25.106Z,6.12
2018-07-20T19:45:54.154Z,4.83
2018-07-20T19:48:23.207Z,4.30
2018-07-20T19:50:52.270Z,4.20
2018-07-20T19:53:21.280Z,3.90
2018-07-20T19:55:50.316Z,4.47
2018-07-20T19:58:19.343Z,4.17
2018-07-20T20:00:48.316Z,4.17
2018-07-20T20:03:18.125Z,5.30
2018-07-20T20:05:47.128Z,3.72
2018-07-20T20:08:16.154Z,4.80
2018-07-20T20:10:45.203Z,4.22
2018-07-20T20:13:14.930Z,3.53
2018-07-20T20:15:44.036Z,3.90
2018-07-20T20:18:13.771Z,3.77
2018-07-20T20:20:42.788Z,4.43
2018-07-20T20:23:12.022Z,4.22
2018-07-20T20:25:41.080Z,4.00
2018-07-20T20:28:10.162Z,4.72
2018-07-20T20:30:39.251Z,4.47
2018-07-20T20:33:08.903Z,4.67
2018-07-20T20:35:38.032Z,4.55
2018-07-20T20:38:07.271Z,3.92
2018-07-20T20:40:36.671Z,4.56
2018-07-20T20:43:05.746Z,4.50
2018-07-20T20:45:34.777Z,4.90
2018-07-20T20:48:04.022Z,5.22
2018-07-20T20:50:33.754Z,4.53
2018-07-20T20:53:02.819Z,4.83
2018-07-20T20:55:32.360Z,5.37
2018-07-20T20:58:02.072Z,4.00
2018-07-20T21:00:30.963Z,4.55
2018-07-20T21:02:59.992Z,5.62
2018-07-20T21:05:29.090Z,4.30
2018-07-20T21:07:57.866Z,4.80
2018-07-20T21:10:26.826Z,4.57
2018-07-20T21:12:55.818Z,4.03
2018-07-20T21:15:24.852Z,4.50
2018-07-20T21:17:54.006Z,4.60
2018-07-20T21:20:23.081Z,4.35
2018-07-20T21:22:52.082Z,5.23
2018-07-20T21:25:21.066Z,4.70
2018-07-20T21:27:50.140Z,4.33
2018-07-20T21:30:19.127Z,4.58
2018-07-20T21:32:47.933Z,5.05
2018-07-20T21:35:16.669Z,4.80
2018-07-20T21:37:45.567Z,4.60
2018-07-20T21:40:14.607Z,5.15
2018-07-20T21:42:43.455Z,4.55
2018-07-20T21:45:12.369Z,4.17
2018-07-20T21:50:39.599Z,4.63
2018-07-20T21:53:08.811Z,5.80
2018-07-20T21:55:37.827Z,5.37
2018-07-20T21:58:06.728Z,4.40
2018-07-20T22:00:35.727Z,5.50
2018-07-20T22:03:04.707Z,4.75
2018-07-20T22:05:33.658Z,5.63
2018-07-20T22:08:02.663Z,6.00
2018-07-20T22:20:24.519Z,4.35
2018-07-20T22:22:53.503Z,4.43
2018-07-20T22:25:22.489Z,5.40
2018-07-20T22:27:51.453Z,5.35
2018-07-20T22:30:20.438Z,5.35
2018-07-20T22:32:49.488Z,5.53
2018-07-20T22:35:18.498Z,4.72
2018-07-20T22:37:47.499Z,4.97
2018-07-20T22:40:16.516Z,4.92
2018-07-20T22:42:45.474Z,5.57
2018-07-20T22:45:14.375Z,5.83
2018-07-20T22:47:43.256Z,5.17
2018-07-20T22:50:12.271Z,6.25
2018-07-20T22:52:41.525Z,5.08
2018-07-20T22:55:10.731Z,5.45
2018-07-20T22:57:40.542Z,5.12
2018-07-20T23:00:09.556Z,4.55
2018-07-20T23:02:38.572Z,6.40
2018-07-20T23:05:07.642Z,4.67
2018-07-20T23:07:36.413Z,6.25
2018-07-20T23:10:05.382Z,5.33
2018-07-20T23:12:34.679Z,5.62
2018-07-20T23:15:04.990Z,5.58
2018-07-20T23:17:34.803Z,4.78
2018-07-20T23:20:04.496Z,5.73
2018-07-20T23:22:33.330Z,5.28
2018-07-20T23:25:02.297Z,5.87
2018-07-20T23:27:31.262Z,5.75
2018-07-20T23:30:00.241Z,5.50
2018-07-20T23:32:29.043Z,5.30
2018-07-20T23:34:57.912Z,5.47
2018-07-20T23:37:26.875Z,6.40
2018-07-20T23:39:55.843Z,5.58
2018-07-20T23:42:24.795Z,6.03
2018-07-20T23:44:53.756Z,5.10
2018-07-20T23:47:22.698Z,5.87
2018-07-20T23:49:51.958Z,5.62
2018-07-20T23:52:20.695Z,5.37
2018-07-20T23:54:49.551Z,6.65
2018-07-20T23:57:18.287Z,5.40
2018-07-20T23:59:47.319Z,5.23
